EGQL/ADX METAR and TAF weather

Enter ICAO airport designator
Station Type Date Time Source
EGQL METAR 2021/07/24 19:50 UTC NOAA

EGQL 241950Z 11008KT CAVOK 16/11 Q1012 RMK BLU


Station Type Date Time Source
EGQL Decoded METAR 2021/07/24 19:50 UTC NOAA

Leuchars, United Kingdom (EGQL) 56-23N 002-52W 0M
Jul 24, 2021 - 03:50 PM EDT / 2021.07.24 1950 UTC
Wind: from the ESE (110 degrees) at 9 MPH (8 KT):0
Visibility: greater than 7 mile(s):0
Temperature: 60 F (16 C)
Dew Point: 51 F (11 C)
Relative Humidity: 72%
Pressure (altimeter): 29.88 in. Hg (1012 hPa)
ob: EGQL 241950Z 11008KT CAVOK 16/11 Q1012 RMK BLU
cycle: 20

Station Type Date Time Source
EGQL TAF 2011/07/27 06:03 UTC NOAA

TAF TAF
AMD EGQL 270424Z 2706/2724 14005KT 9999 BKN020 PROB30
TEMPO 2706/2708 SCT012
BECMG 2708/2710 SCT025

Example: see airport list